sensor_id;sensor_type;location;lat;lon;timestamp;temperature;humidity
21489;DHT22;10906;45.194;5.684;2023-02-03T05:39:23;2.00;99.90
21489;DHT22;10906;45.194;5.684;2023-02-03T05:42:10;1.80;99.90
21489;DHT22;10906;45.194;5.684;2023-02-03T05:45:16;2.90;99.90
21489;DHT22;10906;45.194;5.684;2023-02-03T05:49:16;1.90;99.90
21489;DHT22;10906;45.194;5.684;2023-02-03T05:52:43;1.80;99.90
21489;DHT22;10906;45.194;5.684;2023-02-03T05:59:46;2.80;99.90
21489;DHT22;10906;45.194;5.684;2023-02-03T06:10:09;1.60;99.90
21489;DHT22;10906;45.194;5.684;2023-02-03T06:13:25;1.70;99.90
21489;DHT22;10906;45.194;5.684;2023-02-03T06:16:52;1.50;99.90
21489;DHT22;10906;45.194;5.684;2023-02-03T06:19:48;1.60;99.90
21489;DHT22;10906;45.194;5.684;2023-02-03T06:23:35;1.90;99.90
21489;DHT22;10906;45.194;5.684;2023-02-03T06:27:12;1.90;99.90
21489;DHT22;10906;45.194;5.684;2023-02-03T06:30:48;2.50;99.90
21489;DHT22;10906;45.194;5.684;2023-02-03T06:34:17;1.10;99.90
21489;DHT22;10906;45.194;5.684;2023-02-03T06:42:10;1.10;99.90
21489;DHT22;10906;45.194;5.684;2023-02-03T07:08:40;0.90;99.90
21489;DHT22;10906;45.194;5.684;2023-02-03T07:11:25;2.00;99.90
21489;DHT22;10906;45.194;5.684;2023-02-03T07:14:09;1.50;99.90
21489;DHT22;10906;45.194;5.684;2023-02-03T07:16:56;2.30;99.90
21489;DHT22;10906;45.194;5.684;2023-02-03T07:19:58;1.30;99.90
21489;DHT22;10906;45.194;5.684;2023-02-03T07:22:53;2.70;99.90
21489;DHT22;10906;45.194;5.684;2023-02-03T07:25:57;2.80;99.90
21489;DHT22;10906;45.194;5.684;2023-02-03T07:28:45;3.10;99.90
21489;DHT22;10906;45.194;5.684;2023-02-03T07:31:53;1.40;99.90
21489;DHT22;10906;45.194;5.684;2023-02-03T07:34:37;1.50;99.90
21489;DHT22;10906;45.194;5.684;2023-02-03T07:37:21;1.50;99.90
21489;DHT22;10906;45.194;5.684;2023-02-03T07:40:10;2.90;99.90
21489;DHT22;10906;45.194;5.684;2023-02-03T07:46:18;1.50;99.90
21489;DHT22;10906;45.194;5.684;2023-02-03T07:49:16;1.40;99.90
21489;DHT22;10906;45.194;5.684;2023-02-03T07:53:00;0.40;99.90
21489;DHT22;10906;45.194;5.684;2023-02-03T07:59:40;1.70;99.90
21489;DHT22;10906;45.194;5.684;2023-02-03T08:02:24;3.30;99.90
21489;DHT22;10906;45.194;5.684;2023-02-03T08:05:09;2.50;99.90
21489;DHT22;10906;45.194;5.684;2023-02-03T08:07:54;1.90;99.90
21489;DHT22;10906;45.194;5.684;2023-02-03T08:10:38;2.00;99.90
21489;DHT22;10906;45.194;5.684;2023-02-03T08:13:23;2.00;99.90
21489;DHT22;10906;45.194;5.684;2023-02-03T08:16:07;2.10;99.90
21489;DHT22;10906;45.194;5.684;2023-02-03T08:18:52;2.10;99.90
21489;DHT22;10906;45.194;5.684;2023-02-03T08:21:36;2.10;99.90
21489;DHT22;10906;45.194;5.684;2023-02-03T08:24:21;2.20;99.90
21489;DHT22;10906;45.194;5.684;2023-02-03T08:27:05;2.30;99.90
21489;DHT22;10906;45.194;5.684;2023-02-03T08:29:49;2.50;99.90
21489;DHT22;10906;45.194;5.684;2023-02-03T08:32:33;2.30;99.90
21489;DHT22;10906;45.194;5.684;2023-02-03T08:35:18;2.40;99.90
21489;DHT22;10906;45.194;5.684;2023-02-03T08:38:03;2.50;99.90
21489;DHT22;10906;45.194;5.684;2023-02-03T08:40:47;2.60;99.90
21489;DHT22;10906;45.194;5.684;2023-02-03T08:50:03;2.80;99.90
21489;DHT22;10906;45.194;5.684;2023-02-03T08:53:34;3.60;99.90
21489;DHT22;10906;45.194;5.684;2023-02-03T08:56:40;2.90;99.90
21489;DHT22;10906;45.194;5.684;2023-02-03T08:59:27;2.90;99.90
21489;DHT22;10906;45.194;5.684;2023-02-03T09:02:32;3.30;99.90
21489;DHT22;10906;45.194;5.684;2023-02-03T09:05:29;3.10;99.90
21489;DHT22;10906;45.194;5.684;2023-02-03T09:08:13;3.80;99.90
21489;DHT22;10906;45.194;5.684;2023-02-03T09:11:14;3.30;99.90
21489;DHT22;10906;45.194;5.684;2023-02-03T09:14:02;3.40;99.90
21489;DHT22;10906;45.194;5.684;2023-02-03T09:16:46;3.60;99.90
21489;DHT22;10906;45.194;5.684;2023-02-03T09:19:31;3.60;99.90
21489;DHT22;10906;45.194;5.684;2023-02-03T09:22:16;3.90;99.90
21489;DHT22;10906;45.194;5.684;2023-02-03T09:25:01;3.80;99.90
21489;DHT22;10906;45.194;5.684;2023-02-03T09:27:48;3.90;99.90
21489;DHT22;10906;45.194;5.684;2023-02-03T09:33:08;4.10;99.90
21489;DHT22;10906;45.194;5.684;2023-02-03T09:35:53;4.20;99.90
21489;DHT22;10906;45.194;5.684;2023-02-03T09:38:38;4.30;99.90
21489;DHT22;10906;45.194;5.684;2023-02-03T09:47:46;5.50;99.90
21489;DHT22;10906;45.194;5.684;2023-02-03T09:50:37;5.70;99.90
21489;DHT22;10906;45.194;5.684;2023-02-03T09:56:56;6.50;99.90
21489;DHT22;10906;45.194;5.684;2023-02-03T10:11:05;7.80;99.20
21489;DHT22;10906;45.194;5.684;2023-02-03T10:20:07;8.30;99.50
21489;DHT22;10906;45.194;5.684;2023-02-03T10:22:59;8.60;98.90
21489;DHT22;10906;45.194;5.684;2023-02-03T10:25:51;8.90;98.70
21489;DHT22;10906;45.194;5.684;2023-02-03T10:28:56;9.10;98.70
21489;DHT22;10906;45.194;5.684;2023-02-03T10:31:41;9.20;98.10
21489;DHT22;10906;45.194;5.684;2023-02-03T10:34:27;9.20;98.20
21489;DHT22;10906;45.194;5.684;2023-02-03T10:37:22;9.50;98.00
21489;DHT22;10906;45.194;5.684;2023-02-03T10:40:11;9.50;97.60
21489;DHT22;10906;45.194;5.684;2023-02-03T10:42:57;9.80;97.20
21489;DHT22;10906;45.194;5.684;2023-02-03T10:46:01;9.80;97.10
21489;DHT22;10906;45.194;5.684;2023-02-03T10:48:46;10.00;95.90
21489;DHT22;10906;45.194;5.684;2023-02-03T11:08:01;11.00;92.30
21489;DHT22;10906;45.194;5.684;2023-02-03T11:24:25;11.60;92.50
21489;DHT22;10906;45.194;5.684;2023-02-03T11:27:16;11.60;92.40
21489;DHT22;10906;45.194;5.684;2023-02-03T11:30:14;11.50;92.10
21489;DHT22;10906;45.194;5.684;2023-02-03T11:33:00;11.50;91.00
21489;DHT22;10906;45.194;5.684;2023-02-03T11:35:58;11.60;91.70
21489;DHT22;10906;45.194;5.684;2023-02-03T11:38:43;11.80;91.10
21489;DHT22;10906;45.194;5.684;2023-02-03T11:41:36;12.20;91.60
21489;DHT22;10906;45.194;5.684;2023-02-03T11:44:26;12.50;90.00
21489;DHT22;10906;45.194;5.684;2023-02-03T11:47:16;12.70;90.20
21489;DHT22;10906;45.194;5.684;2023-02-03T12:56:29;18.50;58.30
21489;DHT22;10906;45.194;5.684;2023-02-03T13:16:01;15.30;62.20
21489;DHT22;10906;45.194;5.684;2023-02-03T13:23:52;13.00;66.20
21489;DHT22;10906;45.194;5.684;2023-02-03T13:37:38;15.30;68.90
21489;DHT22;10906;45.194;5.684;2023-02-03T13:44:14;16.00;68.00
21489;DHT22;10906;45.194;5.684;2023-02-03T13:47:32;16.50;67.10
21489;DHT22;10906;45.194;5.684;2023-02-03T13:50:49;16.90;67.10
21489;DHT22;10906;45.194;5.684;2023-02-03T13:54:05;17.10;65.30
21489;DHT22;10906;45.194;5.684;2023-02-03T13:57:42;17.00;63.80
21489;DHT22;10906;45.194;5.684;2023-02-03T14:17:00;16.40;62.40
21489;DHT22;10906;45.194;5.684;2023-02-03T14:23:15;15.60;61.70
21489;DHT22;10906;45.194;5.684;2023-02-03T14:26:37;15.00;63.30
21489;DHT22;10906;45.194;5.684;2023-02-03T14:29:30;14.70;64.90
21489;DHT22;10906;45.194;5.684;2023-02-03T14:32:15;14.50;65.40
21489;DHT22;10906;45.194;5.684;2023-02-03T14:38:33;14.10;63.70
21489;DHT22;10906;45.194;5.684;2023-02-03T14:41:44;13.80;66.20
21489;DHT22;10906;45.194;5.684;2023-02-03T14:51:03;13.30;66.30
21489;DHT22;10906;45.194;5.684;2023-02-03T14:54:10;13.50;66.50
21489;DHT22;10906;45.194;5.684;2023-02-03T15:00:04;14.60;66.00
21489;DHT22;10906;45.194;5.684;2023-02-03T15:05:59;14.40;64.00
21489;DHT22;10906;45.194;5.684;2023-02-03T15:08:46;14.00;65.70
21489;DHT22;10906;45.194;5.684;2023-02-03T15:11:41;13.70;65.80
21489;DHT22;10906;45.194;5.684;2023-02-03T15:14:28;13.50;66.10
21489;DHT22;10906;45.194;5.684;2023-02-03T15:17:28;13.50;66.60
21489;DHT22;10906;45.194;5.684;2023-02-03T15:20:37;13.70;66.80
21489;DHT22;10906;45.194;5.684;2023-02-03T15:23:27;13.90;66.20
21489;DHT22;10906;45.194;5.684;2023-02-03T15:26:21;14.40;67.20
21489;DHT22;10906;45.194;5.684;2023-02-03T15:29:32;14.50;65.80
21489;DHT22;10906;45.194;5.684;2023-02-03T15:32:36;13.10;64.10
21489;DHT22;10906;45.194;5.684;2023-02-03T15:35:33;12.90;65.50
21489;DHT22;10906;45.194;5.684;2023-02-03T15:38:44;12.80;67.60
21489;DHT22;10906;45.194;5.684;2023-02-03T15:48:34;11.90;70.30
21489;DHT22;10906;45.194;5.684;2023-02-03T15:54:22;11.50;69.40
21489;DHT22;10906;45.194;5.684;2023-02-03T15:57:23;11.50;70.20
21489;DHT22;10906;45.194;5.684;2023-02-03T16:00:22;11.30;70.50
21489;DHT22;10906;45.194;5.684;2023-02-03T16:03:17;11.20;70.70
21489;DHT22;10906;45.194;5.684;2023-02-03T16:06:15;11.10;71.10
21489;DHT22;10906;45.194;5.684;2023-02-03T16:09:03;11.00;71.30
21489;DHT22;10906;45.194;5.684;2023-02-03T16:11:49;10.90;71.60
21489;DHT22;10906;45.194;5.684;2023-02-03T16:14:35;10.80;71.70
21489;DHT22;10906;45.194;5.684;2023-02-03T16:20:23;10.60;72.40
21489;DHT22;10906;45.194;5.684;2023-02-03T16:23:22;10.40;72.70
21489;DHT22;10906;45.194;5.684;2023-02-03T16:26:18;10.40;74.10
21489;DHT22;10906;45.194;5.684;2023-02-03T16:32:17;10.20;74.60
21489;DHT22;10906;45.194;5.684;2023-02-03T16:35:20;10.10;75.00
21489;DHT22;10906;45.194;5.684;2023-02-03T16:38:23;10.00;75.50
21489;DHT22;10906;45.194;5.684;2023-02-03T16:41:26;9.90;77.20
21489;DHT22;10906;45.194;5.684;2023-02-03T16:44:29;9.80;77.10
21489;DHT22;10906;45.194;5.684;2023-02-03T16:47:32;9.70;78.00
21489;DHT22;10906;45.194;5.684;2023-02-03T16:50:35;9.70;78.50
21489;DHT22;10906;45.194;5.684;2023-02-03T16:53:39;9.60;79.00
21489;DHT22;10906;45.194;5.684;2023-02-03T16:56:23;9.50;80.00
21489;DHT22;10906;45.194;5.684;2023-02-03T16:59:08;9.40;80.00
21489;DHT22;10906;45.194;5.684;2023-02-03T17:01:53;9.30;80.20
21489;DHT22;10906;45.194;5.684;2023-02-03T17:04:37;9.30;80.60
21489;DHT22;10906;45.194;5.684;2023-02-03T17:07:21;9.30;80.90
21489;DHT22;10906;45.194;5.684;2023-02-03T17:10:05;9.20;81.70
21489;DHT22;10906;45.194;5.684;2023-02-03T17:12:51;9.20;82.10
21489;DHT22;10906;45.194;5.684;2023-02-03T17:15:44;9.10;82.30
21489;DHT22;10906;45.194;5.684;2023-02-03T17:18:29;9.10;82.90
21489;DHT22;10906;45.194;5.684;2023-02-03T17:21:18;9.00;83.40
21489;DHT22;10906;45.194;5.684;2023-02-03T17:24:39;9.90;85.00
21489;DHT22;10906;45.194;5.684;2023-02-03T17:27:26;8.80;85.20
21489;DHT22;10906;45.194;5.684;2023-02-03T17:30:41;8.70;84.70
21489;DHT22;10906;45.194;5.684;2023-02-03T17:33:58;7.60;84.60
21489;DHT22;10906;45.194;5.684;2023-02-03T17:40:29;8.60;86.40
21489;DHT22;10906;45.194;5.684;2023-02-03T17:43:13;8.50;86.80
21489;DHT22;10906;45.194;5.684;2023-02-03T17:46:05;8.40;90.40
21489;DHT22;10906;45.194;5.684;2023-02-03T17:49:38;8.40;86.60
21489;DHT22;10906;45.194;5.684;2023-02-03T17:53:12;8.00;87.40
21489;DHT22;10906;45.194;5.684;2023-02-03T18:09:22;8.20;89.80
21489;DHT22;10906;45.194;5.684;2023-02-03T18:12:21;8.10;90.20
21489;DHT22;10906;45.194;5.684;2023-02-03T18:15:17;8.00;90.40
21489;DHT22;10906;45.194;5.684;2023-02-03T18:19:14;7.90;90.50
21489;DHT22;10906;45.194;5.684;2023-02-03T18:27:29;8.00;90.70
21489;DHT22;10906;45.194;5.684;2023-02-03T18:30:43;7.90;91.30
21489;DHT22;10906;45.194;5.684;2023-02-03T18:34:41;7.20;90.70
21489;DHT22;10906;45.194;5.684;2023-02-03T21:10:48;6.40;96.20
21489;DHT22;10906;45.194;5.684;2023-02-03T21:13:34;6.30;96.20
21489;DHT22;10906;45.194;5.684;2023-02-03T21:16:47;6.30;96.20
21489;DHT22;10906;45.194;5.684;2023-02-03T21:20:52;6.20;96.90
21489;DHT22;10906;45.194;5.684;2023-02-03T21:24:24;5.30;96.90
21489;DHT22;10906;45.194;5.684;2023-02-03T21:30:41;6.00;96.90
21489;DHT22;10906;45.194;5.684;2023-02-03T21:33:37;6.00;97.50
21489;DHT22;10906;45.194;5.684;2023-02-03T21:36:36;5.90;97.10
21489;DHT22;10906;45.194;5.684;2023-02-03T21:39:31;5.90;97.40
21489;DHT22;10906;45.194;5.684;2023-02-03T21:42:36;5.90;97.90
21489;DHT22;10906;45.194;5.684;2023-02-03T21:45:41;5.90;97.80
21489;DHT22;10906;45.194;5.684;2023-02-03T21:48:29;5.80;98.10
21489;DHT22;10906;45.194;5.684;2023-02-03T21:51:29;5.90;97.80
21489;DHT22;10906;45.194;5.684;2023-02-03T21:54:33;5.90;97.80
21489;DHT22;10906;45.194;5.684;2023-02-03T21:57:17;5.80;98.40
21489;DHT22;10906;45.194;5.684;2023-02-03T22:00:39;5.80;98.10
21489;DHT22;10906;45.194;5.684;2023-02-03T22:03:33;5.80;98.10
21489;DHT22;10906;45.194;5.684;2023-02-03T22:06:47;5.70;98.10
21489;DHT22;10906;45.194;5.684;2023-02-03T22:09:37;5.70;98.30
21489;DHT22;10906;45.194;5.684;2023-02-03T22:12:24;5.80;99.80
21489;DHT22;10906;45.194;5.684;2023-02-03T22:15:09;5.70;98.90
21489;DHT22;10906;45.194;5.684;2023-02-03T22:17:55;5.70;98.50
21489;DHT22;10906;45.194;5.684;2023-02-03T22:20:39;5.70;99.00
21489;DHT22;10906;45.194;5.684;2023-02-03T22:23:24;5.70;99.00
21489;DHT22;10906;45.194;5.684;2023-02-03T22:26:12;5.70;99.50
21489;DHT22;10906;45.194;5.684;2023-02-03T22:28:57;5.70;98.90
21489;DHT22;10906;45.194;5.684;2023-02-03T22:31:41;5.60;99.20
21489;DHT22;10906;45.194;5.684;2023-02-03T22:34:26;5.60;99.00
21489;DHT22;10906;45.194;5.684;2023-02-03T22:37:10;5.60;99.30
21489;DHT22;10906;45.194;5.684;2023-02-03T22:39:55;5.60;99.50
21489;DHT22;10906;45.194;5.684;2023-02-03T22:42:40;5.60;99.90
21489;DHT22;10906;45.194;5.684;2023-02-03T22:45:24;5.60;99.60
21489;DHT22;10906;45.194;5.684;2023-02-03T22:48:09;5.60;99.80
21489;DHT22;10906;45.194;5.684;2023-02-03T22:50:54;5.50;99.80
21489;DHT22;10906;45.194;5.684;2023-02-03T22:53:38;5.60;99.80
21489;DHT22;10906;45.194;5.684;2023-02-03T22:56:32;5.50;99.80
21489;DHT22;10906;45.194;5.684;2023-02-03T22:59:16;5.60;99.90
